• Join FlightAware (Why Join?)
  • Login
  • US Flag 
04:26AM EST


 

Airport Tracker/Info


-or-


 

Live Flight TrackerFlight Track Log ✈ AAL1326 ✈ 04-Apr-2013 ✈ KORD - KFLL

Flight Track Log - Related Links

Times and Time Zones

All times are in EDT time to prevent confusion due to time zone crossing. See the AAL1326 flight status page for this flight to view local times or setup timezone preferences in your user account.

Time Position Orientation Groundspeed Altitude Reporting Facility
EDT Latitude Longitude Course Direction KTS MPH feet Rate Location/Type
06:53PM 41.9500 -87.9167 180° South 167 192 1,700  Level Chicago TRACON
06:54PM 41.8833 -87.9000 169° South 234 269 3,300 2,220 Climbing Chicago TRACON
06:55PM 41.6593 -87.7121 166° South  Level Estimated
06:55PM 41.7972 -87.8769 169° South 260 299 6,700  Level Chicago Center
06:56PM 41.5518 -87.6477 167° South  Level Estimated
06:56PM 41.7333 -87.8500 163° South 288 331 9,400  Level Chicago TRACON
06:57PM 41.4442 -87.5835 180° South  Level Estimated
06:58PM 41.3366 -87.5195 180° South  Level Estimated
06:58PM 41.5481 -87.7761 163° South 320 368 15,700  Level Chicago Center
06:59PM 41.4539 -87.7403 164° South 346 398 17,200 1,800 Climbing Chicago Center
07:00PM 41.3439 -87.7242 174° South 393 452 19,500 1,920 Climbing Chicago Center
07:01PM 41.2306 -87.7275 181° South 402 463 21,200 2,040 Climbing Chicago Center
07:02PM 41.0881 -87.7128 176° South 428 493 23,800 2,220 Climbing Chicago Center
07:03PM 40.9669 -87.6922 173° South 439 505 25,800 1,560 Climbing Chicago Center
07:04PM 40.8511 -87.6364 160° South 449 517 27,100 540 Climbing Chicago Center
07:05PM 40.7286 -87.5758 159° South 469 540 27,000 -60 Descending Chicago Center
07:06PM 40.6031 -87.5150 160° South 482 555 27,000  Level Chicago Center
07:07PM 40.4767 -87.4572 161° South 481 554 27,000  Level Chicago Center
07:08PM 40.3456 -87.3978 161° South 481 554 27,000  Level Chicago Center
07:09PM 40.1972 -87.3281 160° South 480 552 27,000  Level Chicago Center
07:10PM 40.0906 -87.2769 160° South 479 551 27,000  Level Indianapolis Center
07:11PM 39.9658 -87.2208 161° South 471 542 27,000  Level Indianapolis Center
07:12PM 39.8428 -87.1633 160° South 469 540 27,000  Level Indianapolis Center
07:13PM 39.7189 -87.1061 160° South 469 540 27,000  Level Indianapolis Center
07:14PM 39.5969 -87.0497 160° South 467 537 27,000  Level Indianapolis Center
07:15PM 39.4544 -86.9842 160° South 465 535 27,000  Level Indianapolis Center
07:17PM 39.3314 -86.9281 161° South 466 536 27,000  Level Indianapolis Center
07:18PM 39.2097 -86.8725 161° South 463 533 27,000  Level Indianapolis Center
07:19PM 39.0914 -86.8033 156° South 467 537 27,000  Level Indianapolis Center
07:20PM 38.9761 -86.7242 152° Southeast 467 537 27,000 600 Level Indianapolis Center
07:21PM 38.8611 -86.6456 152° Southeast 464 534 28,300 1,680 Climbing Indianapolis Center
07:22PM 38.7494 -86.5706 152° Southeast 452 520 30,500 1,800 Climbing Indianapolis Center
07:23PM 38.6403 -86.4975 152° Southeast 441 507 32,100 1,200 Climbing Indianapolis Center
07:24PM 38.5308 -86.4236 152° Southeast 440 506 33,000 420 Climbing Indianapolis Center
07:25PM 38.4219 -86.3508 152° Southeast 438 504 33,000 480 Level Indianapolis Center
07:26PM 38.2903 -86.2644 153° Southeast 438 504 34,000 960 Climbing Indianapolis Center
07:27PM 38.1814 -86.1919 152° Southeast 436 502 35,000 480 Climbing Indianapolis Center
07:28PM 38.0719 -86.1200 153° Southeast 439 505 35,000  Level Indianapolis Center
07:29PM 37.9642 -86.0497 153° Southeast 434 499 35,000 180 Level Indianapolis Center
07:30PM 37.8572 -85.9786 152° Southeast 431 496 35,400 540 Climbing Indianapolis Center
07:31PM 37.7486 -85.9097 153° Southeast 432 497 36,200 720 Climbing Indianapolis Center
07:32PM 37.6389 -85.8392 153° Southeast 439 505 37,000 360 Climbing Indianapolis Center
07:33PM 37.5308 -85.7672 152° Southeast 438 504 37,000  Level Indianapolis Center
07:34PM 37.4225 -85.6983 153° Southeast 435 501 37,000  Level Indianapolis Center
07:35PM 37.3122 -85.6400 157° South 426 490 37,000  Level Indianapolis Center
07:36PM 37.1928 -85.6011 165° South 423 487 37,000  Level Indianapolis Center
07:37PM 37.0597 -85.5542 164° South 422 486 37,000  Level Indianapolis Center
07:38PM 36.9444 -85.5150 165° South 423 487 37,000  Level Indianapolis Center
07:39PM 36.8467 -85.4819 165° South 415 478 37,000  Level Indianapolis Center
07:40PM 36.7114 -85.4361 165° South 420 483 37,000  Level Indianapolis Center
07:41PM 36.6003 -85.3986 165° South 415 478 37,000  Level Indianapolis Center
07:42PM 36.4889 -85.3611 165° South 414 476 37,000  Level Indianapolis Center
07:43PM 36.3778 -85.3250 165° South 414 476 37,000  Level Indianapolis Center
07:44PM 36.2664 -85.2867 164° South 416 479 37,000  Level Indianapolis Center
07:45PM 36.1544 -85.2525 166° South 402 463 37,000  Level Atlanta Center
07:46PM 36.0444 -85.2150 165° South 407 468 37,000  Level Atlanta Center
07:47PM 35.9300 -85.1772 165° South 412 474 37,000  Level Atlanta Center
07:48PM 35.8197 -85.1425 166° South 417 480 37,000  Level Atlanta Center
07:49PM 35.7075 -85.1053 165° South 412 474 37,000  Level Atlanta Center
07:50PM 35.5972 -85.0681 165° South 412 474 37,000  Level Atlanta Center
07:51PM 35.4869 -85.0308 165° South 412 474 37,000  Level Atlanta Center
07:52PM 35.3767 -84.9964 166° South 412 474 37,000  Level Atlanta Center
07:53PM 35.2664 -84.9594 165° South 412 474 37,000  Level Atlanta Center
07:54PM 35.1581 -84.9253 166° South 412 474 37,000  Level Atlanta Center
07:55PM 35.0456 -84.8886 165° South 412 474 37,000  Level Atlanta Center
07:56PM 34.9394 -84.8522 164° South 412 474 37,000  Level Atlanta Center
07:57PM 34.8311 -84.8206 167° South 407 468 37,000  Level Atlanta Center
07:58PM 34.7228 -84.7842 165° South 407 468 37,000  Level Atlanta Center
07:59PM 34.6042 -84.7428 164° South 412 474 37,000  Level Atlanta Center
08:00PM 34.5042 -84.7117 166° South 412 474 37,000  Level Atlanta Center
08:01PM 34.3917 -84.6756 165° South 412 474 37,000  Level Atlanta Center
08:02PM 34.2831 -84.6647 175° South 406 467 37,000  Level Atlanta Center
08:03PM 34.1725 -84.6539 175° South 406 467 37,000  Level Atlanta Center
08:04PM 34.0642 -84.6431 175° South 400 460 37,000  Level Atlanta Center
08:05PM 33.9578 -84.6322 175° South 400 460 37,000  Level Atlanta Center
08:06PM 33.8514 -84.6217 175° South 395 455 37,000  Level Atlanta Center
08:07PM 33.7325 -84.6158 178° South 389 448 37,000  Level Atlanta Center
08:08PM 33.6447 -84.6028 173° South 383 441 37,000  Level Atlanta Center
08:09PM 33.5364 -84.5797 170° South 388 447 37,000  Level Atlanta Center
08:10PM 33.4364 -84.5292 157° South 394 453 37,000  Level Atlanta Center
08:11PM 33.3342 -84.4814 159° South 399 459 37,000  Level Atlanta Center
08:12PM 33.2342 -84.4336 158° South 394 453 37,000  Level Atlanta Center
08:13PM 33.1300 -84.3886 160° South 394 453 37,000  Level Atlanta Center
08:14PM 33.0194 -84.3311 156° South 388 447 37,000  Level Atlanta Center
08:15PM 32.9194 -84.2839 158° South 393 452 37,000  Level Atlanta Center
08:16PM 32.8131 -84.2317 158° South 399 459 37,000  Level Atlanta Center
08:17PM 32.7192 -84.1844 157° South 399 459 37,000  Level Atlanta Center
08:18PM 32.6128 -84.1325 158° South 411 473 37,000  Level Atlanta Center
08:19PM 32.5042 -84.0831 159° South 411 473 37,000  Level Atlanta Center
08:20PM 32.3958 -84.0314 158° South 411 473 37,000  Level Atlanta Center
08:21PM 32.2892 -83.9797 158° South 411 473 37,000  Level Atlanta Center
08:23PM 32.0500 -83.8681 158° South 418 481 37,000  Level Jacksonville Center
08:24PM 31.9419 -83.8156 158° South 418 481 37,000  Level Jacksonville Center
08:25PM 31.8336 -83.7631 158° South 418 481 37,000  Level Jacksonville Center
08:26PM 31.7256 -83.7108 158° South 418 481 37,000 -60 Level Jacksonville Center
08:27PM 31.6400 -83.6736 160° South 418 481 36,900  Descending Jacksonville Center
08:28PM 31.5192 -83.6214 160° South 426 490 37,000  Climbing Jacksonville Center
08:29PM 31.4192 -83.5864 163° South 404 465 37,000  Level Jacksonville Center
08:30PM 31.3314 -83.6125 194° South 341 392 37,000  Level Jacksonville Center
08:31PM 31.2375 -83.6167 182° South 341 392 37,000  Level Jacksonville Center
08:32PM 31.1436 -83.5892 166° South 341 392 37,000  Level Jacksonville Center
08:33PM 31.0436 -83.5328 154° Southeast 366 421 37,000  Level Jacksonville Center
08:34PM 30.9458 -83.4739 153° Southeast 382 440 37,000  Level Jacksonville Center
08:35PM 30.8458 -83.4200 155° Southeast 393 452 37,000  Level Jacksonville Center
08:36PM 30.7375 -83.3567 153° Southeast 388 447 37,000  Level Jacksonville Center
08:37PM 30.6397 -83.3006 154° Southeast 388 447 37,000  Level Jacksonville Center
08:38PM 30.5353 -83.2422 154° Southeast 399 459 37,000 -60 Level Jacksonville Center
08:39PM 30.4333 -83.1842 154° Southeast 404 465 36,900 -60 Descending Jacksonville Center
08:40PM 30.3311 -83.1283 155° Southeast 404 465 36,900  Level Jacksonville Center
08:41PM 30.2308 -83.0728 154° Southeast 404 465 36,900  Level Jacksonville Center
08:42PM 30.1308 -83.0175 154° Southeast 404 465 37,000  Climbing Jacksonville Center
08:43PM 30.0306 -82.9597 153° Southeast 404 465 36,900  Descending Jacksonville Center
08:44PM 29.9283 -82.9069 156° South 393 452 37,000  Climbing Jacksonville Center
08:45PM 29.8281 -82.8519 155° Southeast 393 452 37,000  Level Jacksonville Center
08:46PM 29.7278 -82.7992 155° Southeast 399 459 37,000  Level Jacksonville Center
08:47PM 29.6233 -82.7708 167° South 385 443 37,000  Level Jacksonville Center
08:48PM 29.5147 -82.7447 168° South 398 458 37,000  Level Jacksonville Center
08:49PM 29.4208 -82.7161 165° South 398 458 37,000 -60 Level Jacksonville Center
08:50PM 29.3122 -82.6903 168° South 393 452 36,900 -60 Descending Jacksonville Center
08:51PM 29.2036 -82.6642 168° South 393 452 36,900  Level Jacksonville Center
08:52PM 29.0950 -82.6383 168° South 393 452 36,900  Level Jacksonville Center
08:53PM 28.9864 -82.6100 167° South 393 452 36,900  Level Jacksonville Center
08:54PM 28.8758 -82.5844 169° South 393 452 37,000  Climbing Jacksonville Center
08:55PM 28.7672 -82.5561 167° South 393 452 36,900  Descending Jacksonville Center
08:56PM 28.6481 -82.5306 169° South 398 458 37,000  Climbing Jacksonville Center
08:57PM 28.5353 -82.5028 168° South 398 458 37,000 -60 Level Jacksonville Center
08:59PM 28.3253 -82.4525 168° South 409 471 36,900 -60 Descending Miami Center
09:00PM 28.2094 -82.4231 167° South 418 481 36,900  Level Miami Center
09:01PM 28.0958 -82.3942 167° South 423 487 37,000  Climbing Miami Center
09:02PM 27.9822 -82.3675 168° South 428 493 37,000  Level Miami Center
09:03PM 27.8622 -82.3381 168° South 428 493 37,000 -1,080 Level Miami Center
09:04PM 27.7528 -82.3117 168° South 422 486 34,900 -2,520 Descending Miami Center
09:05PM 27.6347 -82.2850 169° South 433 498 32,000 -2,460 Descending Miami Center
09:06PM 27.5128 -82.2533 167° South 447 514 30,000 -1,800 Descending Miami Center
09:07PM 27.3969 -82.2269 169° South 459 528 28,400 -1,620 Descending Miami Center
09:08PM 27.2722 -82.1558 153° Southeast 457 526 26,800 -1,500 Descending Miami Center
09:09PM 27.1608 -82.0667 145° Southeast 474 545 25,400 -1,320 Descending Miami Center
09:10PM 27.0575 -81.9758 142° Southeast 482 555 24,200 -1,620 Descending Miami Center
09:11PM 26.9750 -81.8906 137° Southeast 465 535 22,200 -2,100 Descending Miami Center
09:12PM 26.8883 -81.8008 137° Southeast 444 511 20,100 -1,560 Descending Miami Center
09:13PM 26.8058 -81.7111 136° Southeast 428 493 19,100 -600 Descending Miami Center
09:14PM 26.7192 -81.6122 134° Southeast 404 465 19,000 -60 Descending Miami Center
09:15PM 26.6444 -81.5350 137° Southeast 404 465 19,000  Level Miami Center
09:16PM 26.5636 -81.4506 137° Southeast 412 474 19,000 -720 Level Miami Center
09:17PM 26.4808 -81.3639 137° Southeast 412 474 17,600 -2,220 Descending Miami Center
09:18PM 26.3978 -81.2747 136° Southeast 412 474 14,600 -2,760 Descending Miami Center
09:19PM 26.3150 -81.1883 137° Southeast 412 474 12,100 -2,100 Descending Miami Center
09:20PM 26.2419 -81.1117 137° Southeast 396 456 10,400 -1,620 Descending Miami Center
09:21PM 26.1728 -81.0467 140° Southeast 326 375 9,100 -1,500 Descending Miami Center
09:22PM 26.1242 -80.9964 137° Southeast 296 341 7,900 -1,080 Descending Miami Center
09:22PM 26.1122 -80.9775 125° Southeast 324 373 7,900 -540 Level Miami Center
09:23PM 26.0892 -80.9072 110° East 297 342 7,400 -720 Descending Miami Center
09:23PM 26.0917 -80.8889 81° East 288 331 7,200 -1,200 Descending Miami Center
09:24PM 26.0794 -80.8006 99° East 288 331 5,900 -720 Descending Miami Center
09:25PM 26.0753 -80.7264 94° East 292 336 6,000  Climbing Miami Center
09:25PM 26.0819 -80.7106 65° Northeast 282 325 5,900  Descending Miami Center
09:26PM 26.0775 -80.6364 94° East 292 336 6,000  Climbing Miami Center
09:26PM 26.0800 -80.6203 80° East 282 325 5,900  Descending Miami Center
09:27PM 26.0753 -80.5553 95° East 292 336 6,000 60 Climbing Miami Center
09:27PM 26.0803 -80.5300 78° East 287 330 6,000 -900 Level Miami Center
09:28PM 26.0756 -80.4650 95° East 267 307 5,000 -1,320 Descending Miami Center
09:29PM 26.0756 -80.3819 90° East 229 264 3,600 -1,260 Descending Miami Center